Holsbeek, Belgium
Current Conditions -  °F | °C
As of 3:20 PM on Sunday 25 Jan 2015 (Local Time) from EBBR Reporting Station
Clear Clear  
Wind Chill:   Ceiling: Unl
Heat Index:   Visibility: 6mi
Dew Point:   Wind: 8mph
Humidity: 93%   Direction: 240°WSW
Pressure: 30.39"   Gusts: NA
Location:  50.92°N, 4.76°E
Report Text: EBBR 251420Z 24007KT CAVOK 04/03 Q1029 NOSIG
Loading
Personal Weather Stations






























Interactive Weather Map New forecast layout! Learn more

10-Day Weather Forecast

Advertisements
Track Severe Weather on mobile